createdAt,value
2023-05-09T00:03:40.126Z,101850.73
2023-05-09T00:07:41.701Z,101848.33
2023-05-09T00:11:40.292Z,101848.38
2023-05-09T00:15:42.128Z,101846.72
2023-05-09T00:19:40.377Z,101842.93
2023-05-09T00:23:41.607Z,101845.50
2023-05-09T00:27:40.335Z,101847.51
2023-05-09T00:31:42.220Z,101845.94
2023-05-09T00:35:40.249Z,101846.06
2023-05-09T00:39:41.743Z,101847.63
2023-05-09T00:43:40.320Z,101845.60
2023-05-09T00:47:41.925Z,101842.34
2023-05-09T00:51:40.391Z,101845.37
2023-05-09T00:55:41.724Z,101846.81
2023-05-09T00:59:40.244Z,101846.20
2023-05-09T01:03:41.822Z,101846.30
2023-05-09T01:07:39.353Z,101849.88
2023-05-09T01:11:38.259Z,101843.90
2023-05-09T01:15:33.660Z,101849.10
2023-05-09T01:19:33.111Z,101847.16
2023-05-09T01:23:28.563Z,101855.34
2023-05-09T01:27:28.099Z,101851.12
2023-05-09T01:31:13.238Z,101855.00
2023-05-09T01:34:58.622Z,101857.58
2023-05-09T01:38:43.839Z,101853.61
2023-05-09T01:42:28.738Z,101854.84
2023-05-09T01:46:13.796Z,101852.20
2023-05-09T01:49:58.890Z,101852.88
2023-05-09T01:53:43.819Z,101851.42
2023-05-09T01:57:28.686Z,101850.36
2023-05-09T02:01:20.998Z,101851.33
2023-05-09T02:05:18.426Z,101854.68
2023-05-09T02:09:13.519Z,101855.39
2023-05-09T02:13:13.422Z,101853.90
2023-05-09T02:17:08.482Z,101854.61
2023-05-09T02:21:07.745Z,101852.65
2023-05-09T02:25:03.560Z,101855.75
2023-05-09T02:29:02.573Z,101854.39
2023-05-09T02:32:57.495Z,101856.75
2023-05-09T02:36:54.497Z,101855.61
2023-05-09T02:40:39.609Z,101858.93
2023-05-09T02:44:24.432Z,101860.06
2023-05-09T02:48:09.795Z,101861.16
2023-05-09T02:51:54.980Z,101861.38
2023-05-09T02:55:40.085Z,101860.77
2023-05-09T02:59:25.169Z,101862.54
2023-05-09T03:03:11.036Z,101869.52
2023-05-09T03:07:15.394Z,101871.36
2023-05-09T03:11:17.088Z,101883.17
2023-05-09T03:15:17.445Z,101876.17
2023-05-09T03:19:20.487Z,101880.89
2023-05-09T03:23:18.580Z,101882.50
2023-05-09T03:27:20.369Z,101885.74
2023-05-09T03:31:18.557Z,101886.73
2023-05-09T03:35:20.210Z,101890.38
2023-05-09T03:39:18.496Z,101891.48
2023-05-09T03:43:21.509Z,101894.07
2023-05-09T03:47:19.482Z,101890.37
2023-05-09T03:51:21.300Z,101891.56
2023-05-09T03:55:20.648Z,101893.99
2023-05-09T03:59:22.522Z,101888.96
2023-05-09T04:03:21.742Z,101896.44
2023-05-09T04:07:24.385Z,101893.73
2023-05-09T04:11:23.630Z,101888.45
2023-05-09T04:15:24.688Z,101889.41
2023-05-09T04:19:23.596Z,101889.60
2023-05-09T04:23:25.021Z,101884.77
2023-05-09T04:27:24.521Z,101887.45
2023-05-09T04:31:27.337Z,101887.02
2023-05-09T04:35:25.439Z,101884.04
2023-05-09T04:39:27.566Z,101883.34
2023-05-09T04:43:34.681Z,101880.08
2023-05-09T04:47:36.841Z,101879.92
2023-05-09T04:51:35.675Z,101875.05
2023-05-09T04:55:37.216Z,101876.59
2023-05-09T04:59:35.634Z,101882.49
2023-05-09T05:03:36.666Z,101881.34
2023-05-09T05:07:35.519Z,101881.40
2023-05-09T05:11:37.251Z,101882.57
2023-05-09T05:15:34.259Z,101878.97
2023-05-09T05:19:26.059Z,101882.89
2023-05-09T05:23:19.495Z,101884.86
2023-05-09T05:27:18.905Z,101883.87
2023-05-09T05:31:15.158Z,101884.98
2023-05-09T05:35:15.228Z,101880.44
2023-05-09T05:39:11.148Z,101881.81
2023-05-09T05:43:10.520Z,101882.40
2023-05-09T05:47:06.919Z,101885.19
2023-05-09T05:51:06.818Z,101886.07
2023-05-09T05:55:03.942Z,101882.44
2023-05-09T05:59:01.139Z,101878.52
2023-05-09T06:02:46.543Z,101880.64
2023-05-09T06:06:37.982Z,101879.10
2023-05-09T06:10:23.130Z,101872.48
2023-05-09T06:14:08.310Z,101872.58
2023-05-09T06:17:53.740Z,101875.55
2023-05-09T06:21:40.020Z,101869.65
2023-05-09T06:25:24.813Z,101869.68
2023-05-09T06:29:10.130Z,101875.80
2023-05-09T06:33:01.155Z,101872.91
2023-05-09T06:36:46.404Z,101870.90
2023-05-09T06:40:31.300Z,101868.70
2023-05-09T06:44:16.530Z,101867.73
2023-05-09T06:48:01.808Z,101867.59
2023-05-09T06:51:53.160Z,101866.09
2023-05-09T06:55:44.602Z,101860.07
2023-05-09T06:59:35.981Z,101860.70
2023-05-09T07:03:29.405Z,101855.17
2023-05-09T07:07:33.930Z,101850.82
2023-05-09T07:11:35.568Z,101845.25
2023-05-09T07:15:42.035Z,101846.64
2023-05-09T07:19:45.919Z,101837.01
2023-05-09T07:23:43.935Z,101836.17
2023-05-09T07:27:45.326Z,101835.26
2023-05-09T07:31:44.635Z,101835.29
2023-05-09T07:35:46.984Z,101831.04
2023-05-09T07:39:44.893Z,101823.83
2023-05-09T07:43:46.450Z,101821.54
2023-05-09T07:47:44.897Z,101812.59
2023-05-09T07:51:46.461Z,101809.39
2023-05-09T07:55:43.925Z,101806.70
2023-05-09T07:59:45.465Z,101805.91
2023-05-09T08:03:44.155Z,101803.71
2023-05-09T08:07:45.909Z,101801.27
2023-05-09T08:11:44.094Z,101800.63
2023-05-09T08:15:45.573Z,101795.12
2023-05-09T08:19:44.013Z,101788.59
2023-05-09T08:23:45.610Z,101788.41
2023-05-09T08:27:44.050Z,101780.20
2023-05-09T08:31:43.369Z,101776.49
2023-05-09T08:35:42.243Z,101775.21
2023-05-09T08:39:43.437Z,101777.63
2023-05-09T08:43:42.006Z,101774.63
2023-05-09T08:47:43.607Z,101769.83
2023-05-09T08:51:42.114Z,101772.33
2023-05-09T08:55:43.447Z,101771.55
2023-05-09T08:59:42.165Z,101759.76
2023-05-09T09:03:43.543Z,101759.48
2023-05-09T09:07:41.525Z,101756.95
2023-05-09T09:11:40.744Z,101756.84
2023-05-09T09:15:32.393Z,101752.60
2023-05-09T09:19:32.011Z,101751.52
2023-05-09T09:23:27.411Z,101754.83
2023-05-09T09:27:27.403Z,101755.30
2023-05-09T09:31:23.508Z,101749.39
2023-05-09T09:35:23.108Z,101747.50
2023-05-09T09:39:18.293Z,101749.26
2023-05-09T09:43:11.410Z,101745.50
2023-05-09T09:47:07.376Z,101744.97
2023-05-09T09:51:00.451Z,101744.65
2023-05-09T09:54:56.633Z,101742.24
2023-05-09T09:58:56.422Z,101734.86
2023-05-09T10:02:52.544Z,101740.58
2023-05-09T10:06:49.859Z,101732.19
2023-05-09T10:10:45.705Z,101735.39
2023-05-09T10:14:45.073Z,101733.97
2023-05-09T10:18:40.539Z,101733.39
2023-05-09T10:22:39.593Z,101726.18
2023-05-09T10:26:35.678Z,101717.61
2023-05-09T10:30:34.976Z,101718.61
2023-05-09T10:34:30.389Z,101713.89
2023-05-09T10:38:29.263Z,101720.77
2023-05-09T10:42:24.418Z,101713.33
2023-05-09T10:46:23.372Z,101714.70
2023-05-09T10:50:21.065Z,101714.59
2023-05-09T10:54:20.252Z,101715.45
2023-05-09T10:58:15.435Z,101713.47
2023-05-09T11:02:08.987Z,101713.77
2023-05-09T11:06:13.285Z,101716.97
2023-05-09T11:10:14.921Z,101717.98
2023-05-09T11:14:13.185Z,101714.48
2023-05-09T11:18:15.318Z,101707.23
2023-05-09T11:22:14.290Z,101710.25
2023-05-09T11:26:15.588Z,101709.27
2023-05-09T11:30:15.844Z,101707.35
2023-05-09T11:34:13.705Z,101700.55
2023-05-09T11:38:15.422Z,101698.23
2023-05-09T11:42:13.391Z,101694.83
2023-05-09T11:46:14.969Z,101696.14
2023-05-09T11:50:13.444Z,101692.80
2023-05-09T11:54:14.815Z,101684.32
2023-05-09T11:58:14.762Z,101683.27
2023-05-09T12:02:16.576Z,101683.20
2023-05-09T12:06:15.353Z,101677.73
2023-05-09T12:10:17.122Z,101674.95
2023-05-09T12:14:15.570Z,101669.41
2023-05-09T12:18:17.278Z,101662.28
2023-05-09T12:22:15.591Z,101661.94
2023-05-09T12:26:16.951Z,101659.53
2023-05-09T12:30:15.540Z,101652.77
2023-05-09T12:34:17.354Z,101656.92
2023-05-09T12:38:14.321Z,101656.79
2023-05-09T12:42:15.898Z,101656.61
2023-05-09T12:46:14.649Z,101649.45
2023-05-09T12:50:16.370Z,101644.23
2023-05-09T12:54:14.325Z,101643.26
2023-05-09T12:58:15.956Z,101646.30
2023-05-09T13:02:14.466Z,101639.83
2023-05-09T13:06:16.114Z,101631.69
2023-05-09T13:10:13.649Z,101623.14
2023-05-09T13:14:14.014Z,101627.36
2023-05-09T13:18:11.726Z,101625.63
2023-05-09T13:22:12.452Z,101625.55
2023-05-09T13:26:09.590Z,101623.35
2023-05-09T13:30:12.292Z,101621.84
2023-05-09T13:34:10.104Z,101619.77
2023-05-09T13:38:10.133Z,101615.52
2023-05-09T13:42:07.815Z,101613.98
2023-05-09T13:46:07.760Z,101610.32
2023-05-09T13:50:05.414Z,101605.41
2023-05-09T13:54:05.039Z,101596.27
2023-05-09T13:58:02.816Z,101596.75
2023-05-09T14:02:03.230Z,101592.48
2023-05-09T14:06:00.689Z,101594.83
2023-05-09T14:10:11.388Z,101593.99
2023-05-09T14:14:10.039Z,101596.16
2023-05-09T14:18:10.308Z,101602.42
2023-05-09T14:22:07.939Z,101603.79
2023-05-09T14:26:08.223Z,101601.83
2023-05-09T14:30:05.901Z,101601.42
2023-05-09T14:34:06.167Z,101601.81
2023-05-09T14:38:03.643Z,101597.38
2023-05-09T14:42:03.256Z,101595.45
2023-05-09T14:46:00.690Z,101596.73
2023-05-09T14:50:00.218Z,101597.35
2023-05-09T14:53:58.155Z,101595.96
2023-05-09T14:57:58.421Z,101594.30
2023-05-09T15:01:55.947Z,101594.90
2023-05-09T15:05:53.345Z,101594.55
2023-05-09T15:09:50.904Z,101599.46
2023-05-09T15:13:44.461Z,101599.94
2023-05-09T15:17:40.266Z,101595.84
2023-05-09T15:21:36.010Z,101597.98
2023-05-09T15:25:33.628Z,101600.88
2023-05-09T15:29:32.914Z,101603.42
2023-05-09T15:33:29.055Z,101598.83
2023-05-09T15:37:28.685Z,101595.92
2023-05-09T15:41:23.763Z,101591.25
2023-05-09T15:45:23.203Z,101586.69
2023-05-09T15:49:18.935Z,101582.45
2023-05-09T15:53:17.936Z,101580.87
2023-05-09T15:57:12.874Z,101581.39
2023-05-09T16:01:11.974Z,101580.32
2023-05-09T16:05:08.103Z,101584.17
2023-05-09T16:08:53.160Z,101582.47
2023-05-09T16:12:38.028Z,101582.02
2023-05-09T16:16:23.130Z,101581.11
2023-05-09T16:20:08.643Z,101573.27
2023-05-09T16:23:53.656Z,101574.36
2023-05-09T16:27:38.731Z,101574.72
2023-05-09T16:31:23.963Z,101571.55
2023-05-09T16:35:17.342Z,101575.94
2023-05-09T16:39:13.006Z,101573.14
2023-05-09T16:43:12.025Z,101578.66
2023-05-09T16:47:07.442Z,101579.45
2023-05-09T16:51:06.942Z,101579.62
2023-05-09T16:55:02.202Z,101577.70
2023-05-09T16:59:01.629Z,101578.19
2023-05-09T17:02:57.437Z,101578.50
2023-05-09T17:06:56.702Z,101575.18
2023-05-09T17:10:49.138Z,101578.01
2023-05-09T17:14:34.389Z,101584.54
2023-05-09T17:18:33.198Z,101580.45
2023-05-09T17:22:22.165Z,101578.15
2023-05-09T17:26:13.249Z,101577.21
2023-05-09T17:30:04.934Z,101583.34
2023-05-09T17:33:56.139Z,101587.34
2023-05-09T17:37:55.804Z,101592.68
2023-05-09T17:41:51.641Z,101590.38
2023-05-09T17:45:51.121Z,101592.64
2023-05-09T17:49:47.401Z,101595.24
2023-05-09T17:53:46.846Z,101595.12
2023-05-09T17:57:42.339Z,101596.45
2023-05-09T18:01:41.896Z,101594.83
2023-05-09T18:05:37.350Z,101588.83
2023-05-09T18:09:22.834Z,101591.08
2023-05-09T18:13:08.230Z,101590.34
2023-05-09T18:16:53.248Z,101588.98
2023-05-09T18:20:38.529Z,101594.78
2023-05-09T18:24:24.056Z,101594.42
2023-05-09T18:28:09.070Z,101591.67
2023-05-09T18:32:01.156Z,101592.11
2023-05-09T18:35:56.644Z,101596.91
2023-05-09T18:39:56.332Z,101598.40
2023-05-09T18:43:52.599Z,101600.17
2023-05-09T18:47:51.520Z,101602.27
2023-05-09T18:51:47.502Z,101600.03
2023-05-09T18:55:46.810Z,101597.59
2023-05-09T18:59:42.355Z,101597.44
2023-05-09T19:03:33.615Z,101589.66
2023-05-09T19:07:18.829Z,101593.42
2023-05-09T19:11:03.738Z,101590.56
2023-05-09T19:14:48.869Z,101589.92
2023-05-09T19:18:33.883Z,101591.11
2023-05-09T19:22:25.179Z,101599.45
2023-05-09T19:26:17.394Z,101592.61
2023-05-09T19:30:08.343Z,101587.14
2023-05-09T19:34:07.625Z,101586.96
2023-05-09T19:38:06.996Z,101591.63
2023-05-09T19:42:02.576Z,101595.61
2023-05-09T19:46:01.948Z,101592.26
2023-05-09T19:49:57.135Z,101592.25
2023-05-09T19:53:56.644Z,101589.92
2023-05-09T19:57:41.774Z,101587.55
2023-05-09T20:01:26.916Z,101583.67
2023-05-09T20:05:12.101Z,101578.98
2023-05-09T20:08:57.073Z,101581.00
2023-05-09T20:12:42.388Z,101574.29
2023-05-09T20:16:27.390Z,101576.69
2023-05-09T20:20:14.868Z,101582.43
2023-05-09T20:24:06.238Z,101572.80
2023-05-09T20:27:57.492Z,101575.94
2023-05-09T20:31:49.625Z,101575.92
2023-05-09T20:35:48.944Z,101582.73
2023-05-09T20:39:44.464Z,101585.46
2023-05-09T20:43:44.144Z,101584.37
2023-05-09T20:47:43.788Z,101581.77
2023-05-09T20:51:39.672Z,101577.35
2023-05-09T20:55:38.868Z,101572.64
2023-05-09T20:59:34.556Z,101563.77
2023-05-09T21:03:34.046Z,101580.87
2023-05-09T21:07:19.041Z,101585.57
2023-05-09T21:11:04.063Z,101584.80
2023-05-09T21:14:49.193Z,101586.70
2023-05-09T21:18:34.341Z,101588.99
2023-05-09T21:22:19.437Z,101592.56
2023-05-09T21:26:04.614Z,101585.64
2023-05-09T21:29:49.812Z,101582.05
2023-05-09T21:33:40.657Z,101582.84
2023-05-09T21:37:33.922Z,101580.00
2023-05-09T21:41:33.203Z,101576.38
2023-05-09T21:45:28.457Z,101572.06
2023-05-09T21:49:27.698Z,101571.86
2023-05-09T21:53:23.553Z,101570.52
2023-05-09T21:57:22.675Z,101568.98
2023-05-09T22:01:18.605Z,101563.65
2023-05-09T22:05:18.390Z,101566.29
2023-05-09T22:09:13.802Z,101564.44
2023-05-09T22:13:13.301Z,101560.23
2023-05-09T22:17:08.356Z,101558.87
2023-05-09T22:21:07.807Z,101563.04
2023-05-09T22:25:03.486Z,101556.84
2023-05-09T22:29:02.653Z,101559.98
2023-05-09T22:32:58.546Z,101560.11
2023-05-09T22:36:57.839Z,101564.81
2023-05-09T22:40:53.692Z,101558.20
2023-05-09T22:44:53.363Z,101560.78
2023-05-09T22:48:49.217Z,101557.35
2023-05-09T22:52:48.707Z,101556.65
2023-05-09T22:56:44.550Z,101548.39
2023-05-09T23:00:43.629Z,101552.16
2023-05-09T23:04:39.691Z,101546.27
2023-05-09T23:08:43.741Z,101542.88
2023-05-09T23:12:45.518Z,101540.90
2023-05-09T23:16:43.476Z,101536.84
2023-05-09T23:20:45.003Z,101541.64
2023-05-09T23:24:43.633Z,101542.74
2023-05-09T23:28:45.100Z,101536.75
2023-05-09T23:32:43.586Z,101534.54
2023-05-09T23:36:45.104Z,101530.80
2023-05-09T23:40:43.565Z,101523.39
2023-05-09T23:44:44.988Z,101528.39
2023-05-09T23:48:43.588Z,101520.15
2023-05-09T23:52:45.130Z,101515.36
2023-05-09T23:56:43.463Z,101513.08
